createdAt,value
2022-09-13T00:04:14.953Z,14.54
2022-09-13T00:09:15.708Z,14.45
2022-09-13T00:14:16.495Z,14.22
2022-09-13T00:19:17.393Z,14.17
2022-09-13T00:24:18.263Z,14.43
2022-09-13T00:29:19.753Z,14.25
2022-09-13T00:34:21.074Z,14.22
2022-09-13T00:39:22.155Z,14.25
2022-09-13T00:44:59.142Z,13.96
2022-09-13T00:50:18.219Z,14.07
2022-09-13T00:55:34.426Z,13.93
2022-09-13T01:00:36.756Z,13.96
2022-09-13T01:05:45.770Z,13.98
2022-09-13T01:10:48.562Z,14.01
2022-09-13T01:15:49.482Z,14.08
2022-09-13T01:25:50.179Z,14.02
2022-09-13T01:31:07.221Z,13.54
2022-09-13T01:38:08.171Z,13.58
2022-09-13T01:43:25.635Z,13.44
2022-09-13T01:50:06.940Z,13.47
2022-09-13T01:56:45.367Z,13.47
2022-09-13T02:01:57.004Z,13.48
2022-09-13T02:07:08.060Z,13.50
2022-09-13T02:12:26.931Z,13.67
2022-09-13T02:17:33.430Z,13.54
2022-09-13T02:22:41.178Z,13.56
2022-09-13T02:27:47.526Z,13.72
2022-09-13T02:33:18.080Z,14.27
2022-09-13T02:38:34.559Z,14.27
2022-09-13T02:43:43.431Z,14.27
2022-09-13T02:48:58.194Z,14.33
2022-09-13T02:54:51.693Z,14.49
2022-09-13T02:59:52.524Z,14.55
2022-09-13T03:04:53.590Z,14.45
2022-09-13T03:10:00.846Z,14.48
2022-09-13T03:15:52.451Z,14.51
2022-09-13T03:21:39.468Z,14.51
2022-09-13T03:27:03.786Z,14.57
2022-09-13T03:32:43.830Z,14.62
2022-09-13T03:38:56.349Z,14.75
2022-09-13T03:44:05.306Z,14.86
2022-09-13T03:49:11.836Z,14.77
2022-09-13T03:54:22.532Z,14.77
2022-09-13T03:59:23.758Z,14.68
2022-09-13T04:04:25.929Z,14.68
2022-09-13T04:09:26.925Z,14.64
2022-09-13T04:14:27.687Z,14.68
2022-09-13T04:19:28.782Z,14.71
2022-09-13T04:24:30.606Z,14.79
2022-09-13T04:29:31.807Z,14.80
2022-09-13T04:34:32.627Z,14.86
2022-09-13T04:39:33.452Z,14.92
2022-09-13T04:44:34.653Z,15.12
2022-09-13T04:49:35.425Z,14.99
2022-09-13T04:54:37.382Z,14.81
2022-09-13T04:59:38.209Z,14.71
2022-09-13T05:04:39.431Z,14.57
2022-09-13T05:09:40.250Z,14.65
2022-09-13T05:14:41.076Z,14.79
2022-09-13T05:19:41.825Z,14.85
2022-09-13T05:24:42.613Z,14.99
2022-09-13T05:29:43.371Z,15.04
2022-09-13T05:34:44.118Z,15.00
2022-09-13T05:40:07.785Z,15.04
2022-09-13T05:45:11.517Z,15.04
2022-09-13T05:50:26.542Z,14.92
2022-09-13T05:55:34.915Z,14.94
2022-09-13T06:00:35.786Z,14.95
2022-09-13T06:05:36.737Z,14.78
2022-09-13T06:10:37.635Z,14.75
2022-09-13T06:15:43.134Z,14.87
2022-09-13T06:20:44.721Z,15.05
2022-09-13T06:25:45.856Z,15.24
2022-09-13T06:30:46.704Z,15.41
2022-09-13T06:35:47.545Z,15.52
2022-09-13T06:40:48.423Z,15.69
2022-09-13T06:45:49.948Z,15.67
2022-09-13T06:50:50.942Z,15.69
2022-09-13T06:56:04.210Z,15.70
2022-09-13T07:01:14.261Z,15.68
2022-09-13T07:06:22.553Z,15.85
2022-09-13T07:11:26.507Z,15.98
2022-09-13T07:16:30.332Z,15.62
2022-09-13T07:21:32.504Z,15.37
2022-09-13T07:26:33.750Z,15.31
2022-09-13T07:31:39.746Z,15.33
2022-09-13T07:36:41.276Z,15.31
2022-09-13T07:41:43.019Z,15.42
2022-09-13T07:46:43.943Z,15.44
2022-09-13T07:51:45.592Z,15.62
2022-09-13T07:56:49.345Z,15.73
2022-09-13T08:01:51.424Z,15.83
2022-09-13T08:06:52.515Z,15.84
2022-09-13T08:11:53.515Z,15.81
2022-09-13T08:16:56.278Z,15.80
2022-09-13T08:21:57.039Z,15.71
2022-09-13T08:26:57.833Z,15.63
2022-09-13T08:31:58.552Z,15.71
2022-09-13T08:36:59.336Z,15.84
2022-09-13T08:42:11.039Z,15.85
2022-09-13T08:54:02.562Z,16.08
2022-09-13T08:59:20.566Z,15.97
2022-09-13T09:05:55.162Z,16.31
2022-09-13T09:11:01.078Z,17.04
2022-09-13T09:22:52.616Z,17.31
2022-09-13T09:27:54.270Z,17.36
2022-09-13T09:36:24.295Z,17.15
2022-09-13T09:41:31.902Z,16.82
2022-09-13T09:46:40.498Z,16.84
2022-09-13T09:51:41.332Z,16.90
2022-09-13T09:56:53.549Z,16.86
2022-09-13T10:01:56.753Z,16.86
2022-09-13T10:07:23.569Z,16.81
2022-09-13T10:12:29.334Z,16.70
2022-09-13T10:17:30.741Z,16.76
2022-09-13T10:22:32.850Z,16.87
2022-09-13T10:27:42.203Z,17.07
2022-09-13T10:32:54.155Z,17.20
2022-09-13T10:37:55.809Z,17.30
2022-09-13T10:42:58.916Z,17.47
2022-09-13T10:48:19.217Z,17.55
2022-09-13T10:53:38.329Z,17.53
2022-09-13T10:58:39.196Z,17.98
2022-09-13T11:04:04.189Z,18.01
2022-09-13T11:09:21.373Z,18.23
2022-09-13T11:17:51.678Z,18.41
2022-09-13T11:23:22.303Z,18.60
2022-09-13T11:28:49.672Z,18.61
2022-09-13T11:35:43.674Z,18.90
2022-09-13T11:43:51.768Z,19.02
2022-09-13T11:49:29.112Z,19.05
2022-09-13T11:54:51.913Z,18.52
2022-09-13T11:59:58.868Z,18.61
2022-09-13T12:05:30.020Z,18.65
2022-09-13T12:10:46.464Z,18.75
2022-09-13T12:15:52.135Z,18.80
2022-09-13T12:20:58.675Z,18.81
2022-09-13T12:26:16.064Z,19.09
2022-09-13T12:31:22.005Z,19.37
2022-09-13T12:38:46.358Z,19.74
2022-09-13T12:44:06.015Z,19.69
2022-09-13T12:55:47.579Z,19.70
2022-09-13T13:01:16.274Z,19.52
2022-09-13T13:06:38.739Z,19.48
2022-09-13T13:11:46.977Z,19.47
2022-09-13T13:16:48.943Z,19.50
2022-09-13T13:21:49.736Z,19.53
2022-09-13T13:26:57.757Z,19.84
2022-09-13T13:32:11.596Z,20.07
2022-09-13T13:37:32.726Z,20.15
2022-09-13T13:42:37.524Z,20.31
2022-09-13T13:47:53.325Z,20.40
2022-09-13T13:53:04.736Z,20.30
2022-09-13T13:58:25.504Z,20.33
2022-09-13T14:05:08.075Z,20.21
2022-09-13T14:10:29.699Z,20.24
2022-09-13T14:15:58.809Z,20.32
2022-09-13T14:21:23.566Z,20.37
2022-09-13T14:26:24.500Z,20.47
2022-09-13T14:31:25.495Z,20.44
2022-09-13T14:36:26.890Z,20.40
2022-09-13T14:41:37.300Z,20.43
2022-09-13T14:46:42.546Z,20.32
2022-09-13T14:51:55.705Z,20.31
2022-09-13T14:57:02.076Z,20.31
2022-09-13T15:02:15.621Z,20.30
2022-09-13T15:07:26.801Z,20.27
2022-09-13T15:12:27.750Z,20.28
2022-09-13T15:17:28.834Z,20.30
2022-09-13T15:22:32.542Z,20.31
2022-09-13T15:27:44.870Z,20.29
2022-09-13T15:32:45.779Z,20.25
2022-09-13T15:37:58.562Z,20.27
2022-09-13T15:42:59.823Z,20.23
2022-09-13T15:48:01.058Z,20.14
2022-09-13T15:53:04.767Z,20.05
2022-09-13T15:58:05.554Z,19.97
2022-09-13T16:03:08.488Z,19.89
2022-09-13T16:08:11.111Z,19.87
2022-09-13T16:13:12.053Z,19.82
2022-09-13T16:18:16.291Z,19.73
2022-09-13T16:23:17.350Z,19.59
2022-09-13T16:28:21.243Z,19.57
2022-09-13T16:33:22.225Z,19.50
2022-09-13T16:38:23.067Z,19.41
2022-09-13T16:43:23.824Z,19.46
2022-09-13T16:48:25.036Z,19.49
2022-09-13T16:53:25.781Z,19.40
2022-09-13T16:58:26.550Z,19.35
2022-09-13T17:03:27.351Z,19.33
2022-09-13T17:08:28.910Z,19.26
2022-09-13T17:13:29.672Z,19.15
2022-09-13T17:18:30.903Z,19.07
2022-09-13T17:23:31.868Z,18.99
2022-09-13T17:28:34.687Z,18.88
2022-09-13T17:33:35.598Z,18.95
2022-09-13T17:38:37.421Z,18.76
2022-09-13T17:43:39.737Z,18.62
2022-09-13T17:48:41.486Z,18.60
2022-09-13T17:53:45.401Z,18.48
2022-09-13T17:58:46.701Z,18.35
2022-09-13T18:03:47.616Z,18.22
2022-09-13T18:08:52.604Z,18.12
2022-09-13T18:13:53.357Z,18.66
2022-09-13T18:18:55.185Z,18.89
2022-09-13T18:23:58.263Z,19.02
2022-09-13T18:29:02.628Z,19.05
2022-09-13T18:34:07.242Z,18.78
2022-09-13T18:39:14.968Z,18.81
2022-09-13T18:44:17.146Z,18.73
2022-09-13T18:49:18.937Z,18.59
2022-09-13T18:54:19.952Z,18.45
2022-09-13T18:59:20.742Z,18.38
2022-09-13T19:04:21.621Z,18.37
2022-09-13T19:09:23.247Z,18.22
2022-09-13T19:14:26.888Z,18.16
2022-09-13T19:19:30.359Z,18.15
2022-09-13T19:24:31.119Z,18.10
2022-09-13T19:29:31.964Z,17.98
2022-09-13T19:34:32.716Z,17.84
2022-09-13T19:39:33.710Z,17.84
2022-09-13T19:44:34.461Z,17.78
2022-09-13T19:49:35.240Z,17.80
2022-09-13T19:54:35.986Z,17.87
2022-09-13T19:59:36.787Z,17.86
2022-09-13T20:04:37.566Z,17.83
2022-09-13T20:09:40.756Z,17.71
2022-09-13T20:14:41.486Z,17.57
2022-09-13T20:19:49.135Z,17.44
2022-09-13T20:24:50.888Z,17.45
2022-09-13T20:29:51.667Z,17.38
2022-09-13T20:34:52.533Z,17.33
2022-09-13T20:39:53.533Z,16.91
2022-09-13T20:44:54.391Z,16.60
2022-09-13T20:49:55.200Z,16.45
2022-09-13T20:54:56.485Z,16.34
2022-09-13T20:59:57.253Z,16.51
2022-09-13T21:04:59.005Z,16.47
2022-09-13T21:10:00.279Z,16.50
2022-09-13T21:15:01.304Z,16.55
2022-09-13T21:20:02.393Z,16.67
2022-09-13T21:25:04.032Z,16.64
2022-09-13T21:30:07.949Z,16.79
2022-09-13T21:35:08.678Z,16.60
2022-09-13T21:40:10.143Z,16.53
2022-09-13T21:45:11.031Z,16.39
2022-09-13T21:50:11.781Z,16.34
2022-09-13T21:55:12.551Z,16.45
2022-09-13T22:00:14.442Z,16.41
2022-09-13T22:05:15.304Z,16.28
2022-09-13T22:10:16.418Z,16.26
2022-09-13T22:15:17.359Z,16.39
2022-09-13T22:20:18.924Z,16.37
2022-09-13T22:25:19.638Z,16.42
2022-09-13T22:30:20.557Z,16.30
2022-09-13T22:35:21.314Z,16.24
2022-09-13T22:40:22.275Z,16.27
2022-09-13T22:45:23.052Z,16.19
2022-09-13T22:50:23.897Z,16.25
2022-09-13T22:55:24.866Z,16.45
2022-09-13T23:00:25.623Z,16.31
2022-09-13T23:05:26.575Z,16.69
2022-09-13T23:10:27.457Z,16.62
2022-09-13T23:15:28.212Z,16.43
2022-09-13T23:20:29.252Z,16.30
2022-09-13T23:25:32.174Z,16.16
2022-09-13T23:30:32.889Z,16.06
2022-09-13T23:35:36.154Z,15.95
2022-09-13T23:40:37.010Z,15.96
2022-09-13T23:45:37.856Z,15.92
2022-09-13T23:50:38.772Z,16.04
2022-09-13T23:55:39.522Z,16.02
